sensor_id;sensor_type;location;lat;lon;timestamp;temperature;humidity
2407;DHT22;37709;53.480;9.688;2022-08-03T00:00:28;19.00;99.90
2407;DHT22;37709;53.480;9.688;2022-08-03T00:02:56;19.00;99.90
2407;DHT22;37709;53.480;9.688;2022-08-03T00:05:23;19.10;99.90
2407;DHT22;37709;53.480;9.688;2022-08-03T00:07:51;19.10;99.90
2407;DHT22;37709;53.480;9.688;2022-08-03T00:10:19;19.10;99.90
2407;DHT22;37709;53.480;9.688;2022-08-03T00:12:46;19.10;99.90
2407;DHT22;37709;53.480;9.688;2022-08-03T00:15:13;19.00;99.90
2407;DHT22;37709;53.480;9.688;2022-08-03T00:17:43;19.00;99.90
2407;DHT22;37709;53.480;9.688;2022-08-03T00:20:20;19.00;99.90
2407;DHT22;37709;53.480;9.688;2022-08-03T00:22:48;19.00;99.90
2407;DHT22;37709;53.480;9.688;2022-08-03T00:25:16;19.00;99.90
2407;DHT22;37709;53.480;9.688;2022-08-03T00:27:44;19.00;99.90
2407;DHT22;37709;53.480;9.688;2022-08-03T00:30:14;18.90;99.90
2407;DHT22;37709;53.480;9.688;2022-08-03T00:32:43;18.90;99.90
2407;DHT22;37709;53.480;9.688;2022-08-03T00:35:12;18.90;99.90
2407;DHT22;37709;53.480;9.688;2022-08-03T00:37:59;18.90;99.90
2407;DHT22;37709;53.480;9.688;2022-08-03T00:40:27;18.90;99.90
2407;DHT22;37709;53.480;9.688;2022-08-03T00:45:26;18.90;99.90
2407;DHT22;37709;53.480;9.688;2022-08-03T00:47:54;18.90;99.90
2407;DHT22;37709;53.480;9.688;2022-08-03T00:50:24;18.80;99.90
2407;DHT22;37709;53.480;9.688;2022-08-03T00:52:54;18.80;99.90
2407;DHT22;37709;53.480;9.688;2022-08-03T00:55:22;18.80;99.90
2407;DHT22;37709;53.480;9.688;2022-08-03T00:57:50;18.70;99.90
2407;DHT22;37709;53.480;9.688;2022-08-03T01:00:24;18.60;99.90
2407;DHT22;37709;53.480;9.688;2022-08-03T01:02:52;18.50;99.90
2407;DHT22;37709;53.480;9.688;2022-08-03T01:05:20;18.40;99.90
2407;DHT22;37709;53.480;9.688;2022-08-03T01:08:11;18.40;99.90
2407;DHT22;37709;53.480;9.688;2022-08-03T01:11:23;18.40;99.90
2407;DHT22;37709;53.480;9.688;2022-08-03T01:14:01;18.40;99.90
2407;DHT22;37709;53.480;9.688;2022-08-03T01:19:41;18.50;99.90
2407;DHT22;37709;53.480;9.688;2022-08-03T01:22:35;18.50;99.90
2407;DHT22;37709;53.480;9.688;2022-08-03T01:25:22;18.50;99.90
2407;DHT22;37709;53.480;9.688;2022-08-03T01:28:18;18.50;99.90
2407;DHT22;37709;53.480;9.688;2022-08-03T01:30:47;18.50;99.90
2407;DHT22;37709;53.480;9.688;2022-08-03T01:33:19;18.40;99.90
2407;DHT22;37709;53.480;9.688;2022-08-03T01:35:53;18.40;99.90
2407;DHT22;37709;53.480;9.688;2022-08-03T01:38:28;18.30;99.90
2407;DHT22;37709;53.480;9.688;2022-08-03T01:40:59;18.40;99.90
2407;DHT22;37709;53.480;9.688;2022-08-03T01:43:29;18.50;99.90
2407;DHT22;37709;53.480;9.688;2022-08-03T01:46:17;18.50;99.90
2407;DHT22;37709;53.480;9.688;2022-08-03T01:48:47;18.50;99.90
2407;DHT22;37709;53.480;9.688;2022-08-03T01:51:18;18.60;99.90
2407;DHT22;37709;53.480;9.688;2022-08-03T01:53:47;18.60;99.90
2407;DHT22;37709;53.480;9.688;2022-08-03T01:56:19;18.60;99.90
2407;DHT22;37709;53.480;9.688;2022-08-03T01:58:48;18.60;99.90
2407;DHT22;37709;53.480;9.688;2022-08-03T02:01:20;18.60;99.90
2407;DHT22;37709;53.480;9.688;2022-08-03T02:03:49;18.60;99.90
2407;DHT22;37709;53.480;9.688;2022-08-03T02:06:29;18.50;99.90
2407;DHT22;37709;53.480;9.688;2022-08-03T02:09:20;18.40;99.90
2407;DHT22;37709;53.480;9.688;2022-08-03T02:11:48;18.30;99.90
2407;DHT22;37709;53.480;9.688;2022-08-03T02:14:43;18.30;99.90
2407;DHT22;37709;53.480;9.688;2022-08-03T02:17:13;18.20;99.90
2407;DHT22;37709;53.480;9.688;2022-08-03T02:19:44;18.10;99.90
2407;DHT22;37709;53.480;9.688;2022-08-03T02:22:13;18.00;99.90
2407;DHT22;37709;53.480;9.688;2022-08-03T02:24:42;17.90;99.90
2407;DHT22;37709;53.480;9.688;2022-08-03T02:27:26;17.90;99.90
2407;DHT22;37709;53.480;9.688;2022-08-03T02:30:01;17.80;99.90
2407;DHT22;37709;53.480;9.688;2022-08-03T02:32:33;17.80;99.90
2407;DHT22;37709;53.480;9.688;2022-08-03T02:35:03;17.80;99.90
2407;DHT22;37709;53.480;9.688;2022-08-03T02:37:36;17.80;99.90
2407;DHT22;37709;53.480;9.688;2022-08-03T02:40:09;17.80;99.90
2407;DHT22;37709;53.480;9.688;2022-08-03T02:42:39;17.80;99.90
2407;DHT22;37709;53.480;9.688;2022-08-03T02:45:09;17.70;99.90
2407;DHT22;37709;53.480;9.688;2022-08-03T02:47:41;17.60;99.90
2407;DHT22;37709;53.480;9.688;2022-08-03T02:50:21;17.50;99.90
2407;DHT22;37709;53.480;9.688;2022-08-03T02:52:51;17.50;99.90
2407;DHT22;37709;53.480;9.688;2022-08-03T02:55:20;17.60;99.90
2407;DHT22;37709;53.480;9.688;2022-08-03T02:57:49;17.50;99.90
2407;DHT22;37709;53.480;9.688;2022-08-03T03:00:18;17.50;99.90
2407;DHT22;37709;53.480;9.688;2022-08-03T03:02:57;17.50;99.90
2407;DHT22;37709;53.480;9.688;2022-08-03T03:05:27;17.60;99.90
2407;DHT22;37709;53.480;9.688;2022-08-03T03:08:17;17.70;99.90
2407;DHT22;37709;53.480;9.688;2022-08-03T03:10:53;17.60;99.90
2407;DHT22;37709;53.480;9.688;2022-08-03T03:13:22;17.50;99.90
2407;DHT22;37709;53.480;9.688;2022-08-03T03:15:51;17.40;99.90
2407;DHT22;37709;53.480;9.688;2022-08-03T03:18:20;17.40;99.90
2407;DHT22;37709;53.480;9.688;2022-08-03T03:20:52;17.40;99.90
2407;DHT22;37709;53.480;9.688;2022-08-03T03:23:21;17.40;99.90
2407;DHT22;37709;53.480;9.688;2022-08-03T03:25:50;17.30;99.90
2407;DHT22;37709;53.480;9.688;2022-08-03T03:28:18;17.40;99.90
2407;DHT22;37709;53.480;9.688;2022-08-03T03:30:47;17.40;99.90
2407;DHT22;37709;53.480;9.688;2022-08-03T03:33:20;17.40;99.90
2407;DHT22;37709;53.480;9.688;2022-08-03T03:35:49;17.50;99.90
2407;DHT22;37709;53.480;9.688;2022-08-03T03:38:19;17.50;99.90
2407;DHT22;37709;53.480;9.688;2022-08-03T03:40:47;17.40;99.90
2407;DHT22;37709;53.480;9.688;2022-08-03T03:43:15;17.30;99.90
2407;DHT22;37709;53.480;9.688;2022-08-03T03:45:46;17.30;99.90
2407;DHT22;37709;53.480;9.688;2022-08-03T03:48:14;17.40;99.90
2407;DHT22;37709;53.480;9.688;2022-08-03T03:50:42;17.30;99.90
2407;DHT22;37709;53.480;9.688;2022-08-03T03:53:11;17.30;99.90
2407;DHT22;37709;53.480;9.688;2022-08-03T03:55:39;17.30;99.90
2407;DHT22;37709;53.480;9.688;2022-08-03T03:58:27;17.30;99.90
2407;DHT22;37709;53.480;9.688;2022-08-03T04:00:55;17.30;99.90
2407;DHT22;37709;53.480;9.688;2022-08-03T04:03:22;17.30;99.90
2407;DHT22;37709;53.480;9.688;2022-08-03T04:05:50;17.30;99.90
2407;DHT22;37709;53.480;9.688;2022-08-03T04:08:36;17.30;99.90
2407;DHT22;37709;53.480;9.688;2022-08-03T04:11:23;17.30;99.90
2407;DHT22;37709;53.480;9.688;2022-08-03T04:14:08;17.30;99.90
2407;DHT22;37709;53.480;9.688;2022-08-03T04:16:40;17.40;99.90
2407;DHT22;37709;53.480;9.688;2022-08-03T04:19:14;17.30;99.90
2407;DHT22;37709;53.480;9.688;2022-08-03T04:21:52;17.30;99.90
2407;DHT22;37709;53.480;9.688;2022-08-03T04:24:26;17.20;99.90
2407;DHT22;37709;53.480;9.688;2022-08-03T04:26:58;17.20;99.90
2407;DHT22;37709;53.480;9.688;2022-08-03T04:29:26;17.30;99.90
2407;DHT22;37709;53.480;9.688;2022-08-03T04:31:57;17.30;99.90
2407;DHT22;37709;53.480;9.688;2022-08-03T04:34:27;17.30;99.90
2407;DHT22;37709;53.480;9.688;2022-08-03T04:36:58;17.30;99.90
2407;DHT22;37709;53.480;9.688;2022-08-03T04:39:27;17.30;99.90
2407;DHT22;37709;53.480;9.688;2022-08-03T04:42:00;17.50;99.90
2407;DHT22;37709;53.480;9.688;2022-08-03T04:44:37;17.60;99.90
2407;DHT22;37709;53.480;9.688;2022-08-03T04:47:07;17.80;99.90
2407;DHT22;37709;53.480;9.688;2022-08-03T04:49:38;17.90;99.90
2407;DHT22;37709;53.480;9.688;2022-08-03T04:52:07;18.00;99.90
2407;DHT22;37709;53.480;9.688;2022-08-03T04:54:44;18.10;99.90
2407;DHT22;37709;53.480;9.688;2022-08-03T04:57:17;18.10;99.90
2407;DHT22;37709;53.480;9.688;2022-08-03T04:59:51;18.20;99.90
2407;DHT22;37709;53.480;9.688;2022-08-03T05:02:30;18.30;99.90
2407;DHT22;37709;53.480;9.688;2022-08-03T05:04:58;18.30;99.90
2407;DHT22;37709;53.480;9.688;2022-08-03T05:07:27;18.30;99.90
2407;DHT22;37709;53.480;9.688;2022-08-03T05:10:07;18.30;99.90
2407;DHT22;37709;53.480;9.688;2022-08-03T05:12:44;18.40;99.90
2407;DHT22;37709;53.480;9.688;2022-08-03T05:15:14;18.60;99.90
2407;DHT22;37709;53.480;9.688;2022-08-03T05:17:42;18.80;99.90
2407;DHT22;37709;53.480;9.688;2022-08-03T05:20:10;18.90;99.90
2407;DHT22;37709;53.480;9.688;2022-08-03T05:22:38;19.00;99.90
2407;DHT22;37709;53.480;9.688;2022-08-03T05:25:05;19.10;99.90
2407;DHT22;37709;53.480;9.688;2022-08-03T05:27:33;19.10;99.90
2407;DHT22;37709;53.480;9.688;2022-08-03T05:30:00;19.20;99.90
2407;DHT22;37709;53.480;9.688;2022-08-03T05:32:48;19.30;99.90
2407;DHT22;37709;53.480;9.688;2022-08-03T05:35:15;19.40;99.90
2407;DHT22;37709;53.480;9.688;2022-08-03T05:38:03;19.50;99.90
2407;DHT22;37709;53.480;9.688;2022-08-03T05:40:32;19.70;99.90
2407;DHT22;37709;53.480;9.688;2022-08-03T05:43:00;19.80;99.90
2407;DHT22;37709;53.480;9.688;2022-08-03T05:45:27;19.90;99.90
2407;DHT22;37709;53.480;9.688;2022-08-03T05:47:55;19.90;99.90
2407;DHT22;37709;53.480;9.688;2022-08-03T05:50:22;19.90;99.90
2407;DHT22;37709;53.480;9.688;2022-08-03T05:52:53;20.00;99.90
2407;DHT22;37709;53.480;9.688;2022-08-03T05:55:21;20.20;99.90
2407;DHT22;37709;53.480;9.688;2022-08-03T05:57:49;20.30;99.90
2407;DHT22;37709;53.480;9.688;2022-08-03T06:00:17;20.30;99.90
2407;DHT22;37709;53.480;9.688;2022-08-03T06:02:45;20.40;99.90
2407;DHT22;37709;53.480;9.688;2022-08-03T06:05:13;20.50;99.90
2407;DHT22;37709;53.480;9.688;2022-08-03T06:07:41;20.60;99.90
2407;DHT22;37709;53.480;9.688;2022-08-03T06:10:08;20.70;99.90
2407;DHT22;37709;53.480;9.688;2022-08-03T06:12:56;20.90;99.90
2407;DHT22;37709;53.480;9.688;2022-08-03T06:15:23;21.00;99.90
2407;DHT22;37709;53.480;9.688;2022-08-03T06:17:51;21.10;99.90
2407;DHT22;37709;53.480;9.688;2022-08-03T06:20:19;21.10;99.90
2407;DHT22;37709;53.480;9.688;2022-08-03T06:22:47;21.10;99.90
2407;DHT22;37709;53.480;9.688;2022-08-03T06:25:26;21.30;99.90
2407;DHT22;37709;53.480;9.688;2022-08-03T06:27:54;21.40;99.90
2407;DHT22;37709;53.480;9.688;2022-08-03T06:30:40;21.60;99.90
2407;DHT22;37709;53.480;9.688;2022-08-03T06:33:08;21.80;99.90
2407;DHT22;37709;53.480;9.688;2022-08-03T06:35:36;22.00;99.90
2407;DHT22;37709;53.480;9.688;2022-08-03T06:38:07;22.30;99.90
2407;DHT22;37709;53.480;9.688;2022-08-03T06:40:35;22.60;99.90
2407;DHT22;37709;53.480;9.688;2022-08-03T06:43:06;23.00;99.90
2407;DHT22;37709;53.480;9.688;2022-08-03T06:45:39;23.60;99.90
2407;DHT22;37709;53.480;9.688;2022-08-03T06:48:09;24.40;99.90
2407;DHT22;37709;53.480;9.688;2022-08-03T06:50:39;24.90;99.90
2407;DHT22;37709;53.480;9.688;2022-08-03T06:53:08;25.30;99.90
2407;DHT22;37709;53.480;9.688;2022-08-03T06:55:46;25.50;99.90
2407;DHT22;37709;53.480;9.688;2022-08-03T06:58:20;25.70;99.90
2407;DHT22;37709;53.480;9.688;2022-08-03T07:00:48;26.00;99.90
2407;DHT22;37709;53.480;9.688;2022-08-03T07:03:15;26.20;99.90
2407;DHT22;37709;53.480;9.688;2022-08-03T07:05:43;26.30;99.90
2407;DHT22;37709;53.480;9.688;2022-08-03T07:08:14;26.50;99.90
2407;DHT22;37709;53.480;9.688;2022-08-03T07:10:42;26.60;99.60
2407;DHT22;37709;53.480;9.688;2022-08-03T07:13:10;26.80;98.80
2407;DHT22;37709;53.480;9.688;2022-08-03T07:15:38;27.00;98.40
2407;DHT22;37709;53.480;9.688;2022-08-03T07:18:22;27.30;98.10
2407;DHT22;37709;53.480;9.688;2022-08-03T07:20:57;27.50;97.20
2407;DHT22;37709;53.480;9.688;2022-08-03T07:23:24;27.90;97.30
2407;DHT22;37709;53.480;9.688;2022-08-03T07:25:52;28.00;96.60
2407;DHT22;37709;53.480;9.688;2022-08-03T07:28:20;27.90;96.60
2407;DHT22;37709;53.480;9.688;2022-08-03T07:30:47;28.00;96.50
2407;DHT22;37709;53.480;9.688;2022-08-03T07:33:14;28.20;96.40
2407;DHT22;37709;53.480;9.688;2022-08-03T07:35:42;28.60;95.60
2407;DHT22;37709;53.480;9.688;2022-08-03T07:38:10;29.10;94.60
2407;DHT22;37709;53.480;9.688;2022-08-03T07:40:37;29.30;94.50
2407;DHT22;37709;53.480;9.688;2022-08-03T07:43:11;29.40;93.40
2407;DHT22;37709;53.480;9.688;2022-08-03T07:45:39;29.40;93.40
2407;DHT22;37709;53.480;9.688;2022-08-03T07:48:06;29.10;92.80
2407;DHT22;37709;53.480;9.688;2022-08-03T07:50:39;29.00;93.40
2407;DHT22;37709;53.480;9.688;2022-08-03T07:53:06;28.90;93.40
2407;DHT22;37709;53.480;9.688;2022-08-03T07:55:34;28.80;93.70
2407;DHT22;37709;53.480;9.688;2022-08-03T07:58:05;28.60;94.10
2407;DHT22;37709;53.480;9.688;2022-08-03T08:00:34;28.60;93.70
2407;DHT22;37709;53.480;9.688;2022-08-03T08:03:02;28.90;93.80
2407;DHT22;37709;53.480;9.688;2022-08-03T08:05:30;29.10;93.90
2407;DHT22;37709;53.480;9.688;2022-08-03T08:07:58;29.20;93.20
2407;DHT22;37709;53.480;9.688;2022-08-03T08:10:26;29.40;93.00
2407;DHT22;37709;53.480;9.688;2022-08-03T08:12:54;29.60;93.30
2407;DHT22;37709;53.480;9.688;2022-08-03T08:15:22;29.40;92.50
2407;DHT22;37709;53.480;9.688;2022-08-03T08:17:53;29.20;92.40
2407;DHT22;37709;53.480;9.688;2022-08-03T08:20:23;29.20;92.70
2407;DHT22;37709;53.480;9.688;2022-08-03T08:22:59;29.20;92.80
2407;DHT22;37709;53.480;9.688;2022-08-03T08:25:29;29.30;92.30
2407;DHT22;37709;53.480;9.688;2022-08-03T08:27:57;29.10;92.50
2407;DHT22;37709;53.480;9.688;2022-08-03T08:30:49;29.30;92.70
2407;DHT22;37709;53.480;9.688;2022-08-03T08:33:17;29.60;92.50
2407;DHT22;37709;53.480;9.688;2022-08-03T08:35:51;29.40;92.60
2407;DHT22;37709;53.480;9.688;2022-08-03T08:38:20;30.20;92.10
2407;DHT22;37709;53.480;9.688;2022-08-03T08:40:49;30.50;91.70
2407;DHT22;37709;53.480;9.688;2022-08-03T08:43:17;30.30;91.30
2407;DHT22;37709;53.480;9.688;2022-08-03T08:45:47;30.20;91.20
2407;DHT22;37709;53.480;9.688;2022-08-03T08:48:21;30.30;91.40
2407;DHT22;37709;53.480;9.688;2022-08-03T08:50:52;30.70;90.70
2407;DHT22;37709;53.480;9.688;2022-08-03T08:53:20;31.30;90.30
2407;DHT22;37709;53.480;9.688;2022-08-03T08:55:58;31.60;89.70
2407;DHT22;37709;53.480;9.688;2022-08-03T08:58:36;32.60;87.40
2407;DHT22;37709;53.480;9.688;2022-08-03T09:01:05;33.80;82.20
2407;DHT22;37709;53.480;9.688;2022-08-03T09:03:33;34.20;80.80
2407;DHT22;37709;53.480;9.688;2022-08-03T09:06:01;34.10;78.80
2407;DHT22;37709;53.480;9.688;2022-08-03T09:08:30;34.20;78.00
2407;DHT22;37709;53.480;9.688;2022-08-03T09:10:58;34.70;76.00
2407;DHT22;37709;53.480;9.688;2022-08-03T09:13:27;35.10;76.00
2407;DHT22;37709;53.480;9.688;2022-08-03T09:18:39;37.50;66.70
2407;DHT22;37709;53.480;9.688;2022-08-03T09:21:25;37.80;64.20
2407;DHT22;37709;53.480;9.688;2022-08-03T09:24:02;38.40;63.80
2407;DHT22;37709;53.480;9.688;2022-08-03T09:26:35;38.80;60.00
2407;DHT22;37709;53.480;9.688;2022-08-03T09:29:07;39.30;58.50
2407;DHT22;37709;53.480;9.688;2022-08-03T09:31:43;39.80;58.30
2407;DHT22;37709;53.480;9.688;2022-08-03T09:34:13;39.70;56.40
2407;DHT22;37709;53.480;9.688;2022-08-03T09:36:44;39.70;55.10
2407;DHT22;37709;53.480;9.688;2022-08-03T09:42:04;40.50;52.00
2407;DHT22;37709;53.480;9.688;2022-08-03T09:44:39;40.10;51.20
2407;DHT22;37709;53.480;9.688;2022-08-03T09:47:09;40.40;52.00
2407;DHT22;37709;53.480;9.688;2022-08-03T09:49:38;41.30;50.40
2407;DHT22;37709;53.480;9.688;2022-08-03T09:52:16;40.90;50.00
2407;DHT22;37709;53.480;9.688;2022-08-03T09:55:10;40.60;49.30
2407;DHT22;37709;53.480;9.688;2022-08-03T09:58:07;40.80;49.60
2407;DHT22;37709;53.480;9.688;2022-08-03T10:03:28;41.60;47.60
2407;DHT22;37709;53.480;9.688;2022-08-03T10:05:56;41.80;47.30
2407;DHT22;37709;53.480;9.688;2022-08-03T10:08:26;41.70;47.90
2407;DHT22;37709;53.480;9.688;2022-08-03T10:10:54;42.10;47.90
2407;DHT22;37709;53.480;9.688;2022-08-03T10:13:22;42.60;46.20
2407;DHT22;37709;53.480;9.688;2022-08-03T10:15:50;43.40;45.70
2407;DHT22;37709;53.480;9.688;2022-08-03T10:18:39;44.00;44.10
2407;DHT22;37709;53.480;9.688;2022-08-03T10:21:09;43.60;43.50
2407;DHT22;37709;53.480;9.688;2022-08-03T10:23:37;43.90;42.60
2407;DHT22;37709;53.480;9.688;2022-08-03T10:26:07;44.00;42.80
2407;DHT22;37709;53.480;9.688;2022-08-03T10:28:39;44.00;41.40
2407;DHT22;37709;53.480;9.688;2022-08-03T10:31:13;44.30;41.70
2407;DHT22;37709;53.480;9.688;2022-08-03T10:33:45;44.20;41.30
2407;DHT22;37709;53.480;9.688;2022-08-03T10:36:22;43.30;41.90
2407;DHT22;37709;53.480;9.688;2022-08-03T10:38:51;43.60;42.40
2407;DHT22;37709;53.480;9.688;2022-08-03T10:41:21;44.70;41.20
2407;DHT22;37709;53.480;9.688;2022-08-03T10:46:32;45.50;39.50
2407;DHT22;37709;53.480;9.688;2022-08-03T10:49:02;46.00;39.20
2407;DHT22;37709;53.480;9.688;2022-08-03T10:51:30;45.30;38.50
2407;DHT22;37709;53.480;9.688;2022-08-03T10:53:59;43.80;39.80
2407;DHT22;37709;53.480;9.688;2022-08-03T10:59:18;43.20;40.30
2407;DHT22;37709;53.480;9.688;2022-08-03T11:01:55;43.50;40.00
2407;DHT22;37709;53.480;9.688;2022-08-03T11:04:28;43.40;39.80
2407;DHT22;37709;53.480;9.688;2022-08-03T11:07:21;45.10;38.60
2407;DHT22;37709;53.480;9.688;2022-08-03T11:09:51;45.80;38.70
2407;DHT22;37709;53.480;9.688;2022-08-03T11:12:31;47.10;36.10
2407;DHT22;37709;53.480;9.688;2022-08-03T11:15:03;46.30;36.60
2407;DHT22;37709;53.480;9.688;2022-08-03T11:17:32;45.50;37.00
2407;DHT22;37709;53.480;9.688;2022-08-03T11:20:13;45.50;37.10
2407;DHT22;37709;53.480;9.688;2022-08-03T11:22:48;44.50;37.90
2407;DHT22;37709;53.480;9.688;2022-08-03T11:25:17;45.30;37.10
2407;DHT22;37709;53.480;9.688;2022-08-03T11:28:24;47.10;36.30
2407;DHT22;37709;53.480;9.688;2022-08-03T11:30:53;47.40;34.30
2407;DHT22;37709;53.480;9.688;2022-08-03T11:33:30;46.70;35.80
2407;DHT22;37709;53.480;9.688;2022-08-03T11:36:00;47.20;34.50
2407;DHT22;37709;53.480;9.688;2022-08-03T11:38:28;46.80;34.90
2407;DHT22;37709;53.480;9.688;2022-08-03T11:40:56;46.70;34.90
2407;DHT22;37709;53.480;9.688;2022-08-03T11:46:16;46.00;34.40
2407;DHT22;37709;53.480;9.688;2022-08-03T11:49:05;46.80;35.80
2407;DHT22;37709;53.480;9.688;2022-08-03T11:51:37;46.90;33.50
2407;DHT22;37709;53.480;9.688;2022-08-03T11:54:06;46.50;34.90
2407;DHT22;37709;53.480;9.688;2022-08-03T11:56:51;47.90;33.90
2407;DHT22;37709;53.480;9.688;2022-08-03T11:59:34;47.90;32.60
2407;DHT22;37709;53.480;9.688;2022-08-03T12:02:09;46.50;33.40
2407;DHT22;37709;53.480;9.688;2022-08-03T12:04:50;46.50;34.70
2407;DHT22;37709;53.480;9.688;2022-08-03T12:07:18;46.50;33.50
2407;DHT22;37709;53.480;9.688;2022-08-03T12:10:08;46.50;33.20
2407;DHT22;37709;53.480;9.688;2022-08-03T12:12:37;47.30;34.00
2407;DHT22;37709;53.480;9.688;2022-08-03T12:15:12;48.80;32.80
2407;DHT22;37709;53.480;9.688;2022-08-03T12:17:40;49.40;31.40
2407;DHT22;37709;53.480;9.688;2022-08-03T12:20:09;49.30;31.00
2407;DHT22;37709;53.480;9.688;2022-08-03T12:22:38;49.10;31.20
2407;DHT22;37709;53.480;9.688;2022-08-03T12:25:07;49.30;31.60
2407;DHT22;37709;53.480;9.688;2022-08-03T12:27:37;49.50;31.50
2407;DHT22;37709;53.480;9.688;2022-08-03T12:30:05;49.50;31.00
2407;DHT22;37709;53.480;9.688;2022-08-03T12:32:32;50.60;29.70
2407;DHT22;37709;53.480;9.688;2022-08-03T12:35:00;50.60;29.70
2407;DHT22;37709;53.480;9.688;2022-08-03T12:37:30;50.50;29.70
2407;DHT22;37709;53.480;9.688;2022-08-03T12:39:59;49.30;29.80
2407;DHT22;37709;53.480;9.688;2022-08-03T12:42:38;49.80;30.00
2407;DHT22;37709;53.480;9.688;2022-08-03T12:45:26;50.20;29.70
2407;DHT22;37709;53.480;9.688;2022-08-03T12:48:00;49.80;30.30
2407;DHT22;37709;53.480;9.688;2022-08-03T12:50:33;49.40;30.40
2407;DHT22;37709;53.480;9.688;2022-08-03T12:53:03;49.40;30.10
2407;DHT22;37709;53.480;9.688;2022-08-03T12:55:37;47.30;31.20
2407;DHT22;37709;53.480;9.688;2022-08-03T12:58:32;45.70;34.60
2407;DHT22;37709;53.480;9.688;2022-08-03T13:01:04;47.50;32.70
2407;DHT22;37709;53.480;9.688;2022-08-03T13:03:44;48.50;31.90
2407;DHT22;37709;53.480;9.688;2022-08-03T13:06:21;49.30;30.20
2407;DHT22;37709;53.480;9.688;2022-08-03T13:09:00;48.40;30.20
2407;DHT22;37709;53.480;9.688;2022-08-03T13:11:28;47.40;31.70
2407;DHT22;37709;53.480;9.688;2022-08-03T13:14:16;48.40;30.70
2407;DHT22;37709;53.480;9.688;2022-08-03T13:16:47;49.60;29.90
2407;DHT22;37709;53.480;9.688;2022-08-03T13:19:15;46.90;31.10
2407;DHT22;37709;53.480;9.688;2022-08-03T13:21:43;47.50;31.90
2407;DHT22;37709;53.480;9.688;2022-08-03T13:24:31;48.90;31.30
2407;DHT22;37709;53.480;9.688;2022-08-03T13:26:59;50.50;29.80
2407;DHT22;37709;53.480;9.688;2022-08-03T13:29:48;49.40;29.80
2407;DHT22;37709;53.480;9.688;2022-08-03T13:32:16;48.20;30.80
2407;DHT22;37709;53.480;9.688;2022-08-03T13:34:44;48.00;30.50
2407;DHT22;37709;53.480;9.688;2022-08-03T13:37:14;48.20;30.80
2407;DHT22;37709;53.480;9.688;2022-08-03T13:39:42;47.60;31.20
2407;DHT22;37709;53.480;9.688;2022-08-03T13:42:28;47.70;31.60
2407;DHT22;37709;53.480;9.688;2022-08-03T13:44:55;47.90;31.20
2407;DHT22;37709;53.480;9.688;2022-08-03T13:47:26;47.30;31.20
2407;DHT22;37709;53.480;9.688;2022-08-03T13:49:54;47.30;31.30
2407;DHT22;37709;53.480;9.688;2022-08-03T13:52:30;47.10;31.40
2407;DHT22;37709;53.480;9.688;2022-08-03T13:54:58;47.30;31.60
2407;DHT22;37709;53.480;9.688;2022-08-03T13:57:27;48.60;31.40
2407;DHT22;37709;53.480;9.688;2022-08-03T14:00:15;49.30;29.70
2407;DHT22;37709;53.480;9.688;2022-08-03T14:02:56;47.00;31.80
2407;DHT22;37709;53.480;9.688;2022-08-03T14:05:31;43.70;34.80
2407;DHT22;37709;53.480;9.688;2022-08-03T14:08:00;43.40;36.20
2407;DHT22;37709;53.480;9.688;2022-08-03T14:10:36;43.70;35.10
2407;DHT22;37709;53.480;9.688;2022-08-03T14:13:04;43.80;35.50
2407;DHT22;37709;53.480;9.688;2022-08-03T14:15:32;44.40;34.60
2407;DHT22;37709;53.480;9.688;2022-08-03T14:18:08;44.90;33.00
2407;DHT22;37709;53.480;9.688;2022-08-03T14:20:42;45.00;33.60
2407;DHT22;37709;53.480;9.688;2022-08-03T14:23:16;44.30;33.20
2407;DHT22;37709;53.480;9.688;2022-08-03T14:25:45;42.30;36.10
2407;DHT22;37709;53.480;9.688;2022-08-03T14:28:20;43.70;35.30
2407;DHT22;37709;53.480;9.688;2022-08-03T14:30:53;45.10;33.40
2407;DHT22;37709;53.480;9.688;2022-08-03T14:33:22;46.20;33.10
2407;DHT22;37709;53.480;9.688;2022-08-03T14:35:51;45.40;32.00
2407;DHT22;37709;53.480;9.688;2022-08-03T14:38:18;45.40;33.00
2407;DHT22;37709;53.480;9.688;2022-08-03T14:40:47;45.40;33.40
2407;DHT22;37709;53.480;9.688;2022-08-03T14:43:15;45.40;33.40
2407;DHT22;37709;53.480;9.688;2022-08-03T14:45:51;45.40;33.00
2407;DHT22;37709;53.480;9.688;2022-08-03T14:48:21;44.80;33.30
2407;DHT22;37709;53.480;9.688;2022-08-03T14:51:09;44.40;33.60
2407;DHT22;37709;53.480;9.688;2022-08-03T14:53:36;43.70;33.80
2407;DHT22;37709;53.480;9.688;2022-08-03T14:56:04;44.00;34.50
2407;DHT22;37709;53.480;9.688;2022-08-03T14:58:36;43.30;35.10
2407;DHT22;37709;53.480;9.688;2022-08-03T15:01:04;42.70;35.00
2407;DHT22;37709;53.480;9.688;2022-08-03T15:03:57;41.80;36.60
2407;DHT22;37709;53.480;9.688;2022-08-03T15:06:24;42.10;36.60
2407;DHT22;37709;53.480;9.688;2022-08-03T15:08:52;41.90;36.80
2407;DHT22;37709;53.480;9.688;2022-08-03T15:11:40;41.30;36.20
2407;DHT22;37709;53.480;9.688;2022-08-03T15:14:08;40.60;37.30
2407;DHT22;37709;53.480;9.688;2022-08-03T15:16:39;40.90;37.80
2407;DHT22;37709;53.480;9.688;2022-08-03T15:19:07;40.70;38.40
2407;DHT22;37709;53.480;9.688;2022-08-03T15:21:55;40.40;38.30
2407;DHT22;37709;53.480;9.688;2022-08-03T15:24:23;40.10;39.10
2407;DHT22;37709;53.480;9.688;2022-08-03T15:26:51;39.80;39.00
2407;DHT22;37709;53.480;9.688;2022-08-03T15:29:18;39.50;39.50
2407;DHT22;37709;53.480;9.688;2022-08-03T15:32:06;39.40;39.90
2407;DHT22;37709;53.480;9.688;2022-08-03T15:34:35;39.00;40.40
2407;DHT22;37709;53.480;9.688;2022-08-03T15:37:03;38.90;40.80
2407;DHT22;37709;53.480;9.688;2022-08-03T15:39:42;38.30;41.00
2407;DHT22;37709;53.480;9.688;2022-08-03T15:42:31;38.20;43.10
2407;DHT22;37709;53.480;9.688;2022-08-03T15:44:59;38.80;40.80
2407;DHT22;37709;53.480;9.688;2022-08-03T15:47:26;38.60;40.40
2407;DHT22;37709;53.480;9.688;2022-08-03T15:49:54;38.50;40.80
2407;DHT22;37709;53.480;9.688;2022-08-03T15:52:22;38.00;41.30
2407;DHT22;37709;53.480;9.688;2022-08-03T15:54:50;38.10;41.00
2407;DHT22;37709;53.480;9.688;2022-08-03T15:57:17;37.50;40.70
2407;DHT22;37709;53.480;9.688;2022-08-03T15:59:45;37.10;42.30
2407;DHT22;37709;53.480;9.688;2022-08-03T16:02:13;37.20;42.90
2407;DHT22;37709;53.480;9.688;2022-08-03T16:04:40;37.10;43.20
2407;DHT22;37709;53.480;9.688;2022-08-03T16:07:07;36.50;43.20
2407;DHT22;37709;53.480;9.688;2022-08-03T16:09:39;36.60;44.00
2407;DHT22;37709;53.480;9.688;2022-08-03T16:12:10;36.40;43.30
2407;DHT22;37709;53.480;9.688;2022-08-03T16:14:43;36.60;43.00
2407;DHT22;37709;53.480;9.688;2022-08-03T16:17:19;36.20;43.90
2407;DHT22;37709;53.480;9.688;2022-08-03T16:19:50;36.30;45.50
2407;DHT22;37709;53.480;9.688;2022-08-03T16:22:22;35.90;45.70
2407;DHT22;37709;53.480;9.688;2022-08-03T16:24:57;36.20;45.60
2407;DHT22;37709;53.480;9.688;2022-08-03T16:27:25;36.40;44.90
2407;DHT22;37709;53.480;9.688;2022-08-03T16:30:14;36.40;45.90
2407;DHT22;37709;53.480;9.688;2022-08-03T16:32:43;36.40;45.10
2407;DHT22;37709;53.480;9.688;2022-08-03T16:35:12;36.30;45.80
2407;DHT22;37709;53.480;9.688;2022-08-03T16:37:47;36.20;46.10
2407;DHT22;37709;53.480;9.688;2022-08-03T16:40:23;36.00;46.30